createdAt,value
2018-12-12T00:01:48.550Z,69.00
2018-12-12T00:04:38.702Z,69.00
2018-12-12T00:07:27.395Z,68.90
2018-12-12T00:10:19.949Z,68.90
2018-12-12T00:13:07.193Z,69.00
2018-12-12T00:15:55.702Z,69.10
2018-12-12T00:18:44.826Z,69.00
2018-12-12T00:21:33.842Z,69.00
2018-12-12T00:24:23.427Z,68.80
2018-12-12T00:27:12.245Z,69.70
2018-12-12T00:30:00.804Z,69.00
2018-12-12T00:32:48.795Z,69.00
2018-12-12T00:35:36.310Z,68.80
2018-12-12T00:38:27.621Z,68.90
2018-12-12T00:41:16.258Z,69.10
2018-12-12T00:44:04.539Z,69.40
2018-12-12T00:46:53.290Z,69.00
2018-12-12T00:49:41.791Z,68.70
2018-12-12T00:52:29.702Z,68.60
2018-12-12T00:55:20.149Z,68.90
2018-12-12T00:58:08.232Z,69.10
2018-12-12T01:00:56.334Z,68.90
2018-12-12T01:03:44.779Z,69.00
2018-12-12T01:06:32.858Z,69.00
2018-12-12T01:09:21.061Z,69.10
2018-12-12T01:12:13.536Z,69.20
2018-12-12T01:15:04.618Z,69.00
2018-12-12T01:17:52.796Z,68.80
2018-12-12T01:20:41.312Z,68.60
2018-12-12T01:23:29.658Z,68.70
2018-12-12T01:26:18.524Z,68.60
2018-12-12T01:29:08.358Z,68.60
2018-12-12T01:31:56.359Z,68.50
2018-12-12T01:34:44.460Z,68.40
2018-12-12T01:37:32.427Z,68.60
2018-12-12T01:40:21.390Z,68.70
2018-12-12T01:43:09.320Z,68.80
2018-12-12T01:45:58.278Z,68.60
2018-12-12T01:48:47.542Z,68.90
2018-12-12T01:51:35.587Z,68.80
2018-12-12T01:54:24.240Z,68.60
2018-12-12T01:57:13.129Z,68.60
2018-12-12T02:00:02.230Z,68.60
2018-12-12T02:02:52.249Z,68.60
2018-12-12T02:05:41.110Z,68.70
2018-12-12T02:08:29.546Z,68.70
2018-12-12T02:11:18.743Z,68.60
2018-12-12T02:14:07.484Z,68.40
2018-12-12T02:16:57.383Z,68.90
2018-12-12T02:19:48.307Z,69.00
2018-12-12T02:22:36.852Z,69.10
2018-12-12T02:25:33.572Z,68.70
2018-12-12T02:28:22.216Z,69.00
2018-12-12T02:31:11.121Z,68.80
2018-12-12T02:34:00.449Z,68.60
2018-12-12T02:36:49.836Z,69.10
2018-12-12T02:39:38.269Z,69.00
2018-12-12T02:42:26.492Z,69.20
2018-12-12T02:45:15.113Z,69.50
2018-12-12T02:48:03.310Z,69.70
2018-12-12T02:50:52.461Z,69.70
2018-12-12T02:53:41.144Z,69.90
2018-12-12T02:56:29.523Z,69.90
2018-12-12T02:59:18.332Z,69.80
2018-12-12T03:02:07.647Z,70.00
2018-12-12T03:04:57.668Z,70.00
2018-12-12T03:07:48.814Z,71.30
2018-12-12T03:10:39.722Z,70.60
2018-12-12T03:13:32.478Z,70.00
2018-12-12T03:16:21.758Z,69.60
2018-12-12T03:19:11.161Z,69.50
2018-12-12T03:22:00.568Z,69.30
2018-12-12T03:24:50.383Z,69.20
2018-12-12T03:27:41.881Z,69.10
2018-12-12T03:30:41.563Z,69.00
2018-12-12T03:33:37.547Z,69.10
2018-12-12T03:36:32.574Z,69.30
2018-12-12T03:46:12.330Z,69.00
2018-12-12T03:49:10.935Z,68.80
2018-12-12T03:52:05.185Z,68.70
2018-12-12T03:55:02.752Z,68.60
2018-12-12T03:57:55.401Z,68.50
2018-12-12T04:00:49.519Z,68.40
2018-12-12T04:03:52.280Z,68.40
2018-12-12T04:06:51.056Z,68.40
2018-12-12T04:09:53.113Z,68.10
2018-12-12T04:12:44.813Z,68.20
2018-12-12T04:15:47.025Z,68.40
2018-12-12T04:18:41.606Z,68.40
2018-12-12T04:21:30.474Z,68.50
2018-12-12T04:24:18.205Z,69.10
2018-12-12T04:27:06.887Z,68.10
2018-12-12T04:29:54.909Z,68.00
2018-12-12T04:32:42.864Z,68.00
2018-12-12T04:35:30.742Z,68.20
2018-12-12T04:38:19.417Z,68.70
2018-12-12T04:41:07.769Z,69.00
2018-12-12T04:43:56.200Z,69.10
2018-12-12T04:46:44.287Z,69.40
2018-12-12T04:49:32.689Z,69.40
2018-12-12T04:52:20.929Z,69.40
2018-12-12T04:55:10.038Z,69.40
2018-12-12T04:58:00.222Z,69.40
2018-12-12T05:00:49.092Z,69.80
2018-12-12T05:03:51.649Z,72.50
2018-12-12T05:06:40.722Z,73.30
2018-12-12T05:09:34.183Z,72.90
2018-12-12T05:12:27.670Z,71.80
2018-12-12T05:15:18.337Z,70.50
2018-12-12T05:18:15.728Z,69.30
2018-12-12T05:21:06.222Z,68.70
2018-12-12T05:23:55.305Z,68.00
2018-12-12T05:26:48.831Z,67.00
2018-12-12T05:33:04.569Z,66.70
2018-12-12T05:35:59.558Z,66.20
2018-12-12T05:38:55.503Z,66.60
2018-12-12T05:41:55.817Z,66.70
2018-12-12T05:44:48.126Z,66.90
2018-12-12T05:47:36.334Z,66.90
2018-12-12T05:50:57.306Z,67.10
2018-12-12T05:53:54.573Z,67.60
2018-12-12T05:59:36.884Z,67.00
2018-12-12T06:02:39.964Z,66.70
2018-12-12T06:05:51.915Z,66.60
2018-12-12T06:08:54.131Z,66.70
2018-12-12T06:11:44.212Z,66.50
2018-12-12T06:33:40.123Z,66.80
2018-12-12T06:39:54.726Z,65.90
2018-12-12T06:45:58.799Z,65.40
2018-12-12T06:48:51.636Z,65.50
2018-12-12T06:51:41.992Z,65.30
2018-12-12T06:54:30.991Z,65.60
2018-12-12T06:57:23.052Z,65.60
2018-12-12T07:00:30.337Z,65.70
2018-12-12T07:06:49.949Z,65.20
2018-12-12T07:09:58.727Z,64.80
2018-12-12T07:12:56.595Z,63.40
2018-12-12T07:15:51.071Z,64.60
2018-12-12T07:18:41.323Z,65.60
2018-12-12T07:21:35.925Z,65.90
2018-12-12T07:24:24.281Z,65.70
2018-12-12T07:27:13.630Z,65.50
2018-12-12T07:30:04.213Z,64.00
2018-12-12T07:32:57.482Z,65.40
2018-12-12T07:35:48.034Z,65.30
2018-12-12T07:38:47.215Z,65.10
2018-12-12T07:42:02.922Z,64.90
2018-12-12T07:45:14.871Z,65.00
2018-12-12T07:48:06.423Z,64.50
2018-12-12T07:51:17.500Z,64.10
2018-12-12T07:54:24.615Z,64.20
2018-12-12T07:57:14.481Z,64.10
2018-12-12T08:00:02.766Z,63.30
2018-12-12T08:02:57.730Z,62.60
2018-12-12T08:06:04.473Z,62.70
2018-12-12T08:09:15.862Z,63.30
2018-12-12T08:12:11.556Z,63.10
2018-12-12T08:15:06.921Z,63.00
2018-12-12T08:18:06.710Z,63.30
2018-12-12T08:21:38.460Z,62.90
2018-12-12T08:24:43.444Z,62.70
2018-12-12T08:31:04.434Z,62.40
2018-12-12T08:33:54.373Z,62.50
2018-12-12T08:36:42.908Z,62.80
2018-12-12T08:39:31.017Z,62.10
2018-12-12T08:42:22.543Z,62.60
2018-12-12T08:48:15.350Z,61.00
2018-12-12T08:51:06.256Z,61.00
2018-12-12T08:54:00.453Z,61.20
2018-12-12T08:57:34.230Z,61.80
2018-12-12T09:06:51.421Z,59.80
2018-12-12T09:09:40.734Z,59.80
2018-12-12T09:12:33.605Z,59.60
2018-12-12T09:15:22.846Z,60.10
2018-12-12T09:18:23.411Z,59.30
2018-12-12T09:21:13.767Z,59.20
2018-12-12T09:24:10.311Z,59.50
2018-12-12T09:27:09.616Z,59.80
2018-12-12T09:29:59.489Z,59.40
2018-12-12T09:32:51.429Z,59.30
2018-12-12T09:35:56.892Z,59.30
2018-12-12T09:42:03.770Z,59.10
2018-12-12T09:44:53.501Z,58.80
2018-12-12T09:47:46.535Z,58.80
2018-12-12T09:50:39.571Z,57.80
2018-12-12T09:53:33.029Z,59.30
2018-12-12T09:56:23.305Z,59.40
2018-12-12T09:59:12.259Z,59.70
2018-12-12T10:02:01.764Z,57.80
2018-12-12T10:04:55.410Z,58.50
2018-12-12T10:07:48.093Z,57.90
2018-12-12T10:10:38.023Z,57.00
2018-12-12T10:13:29.157Z,57.70
2018-12-12T10:16:24.216Z,57.90
2018-12-12T10:19:15.123Z,59.00
2018-12-12T10:22:09.060Z,58.20
2018-12-12T10:24:57.781Z,57.80
2018-12-12T10:27:48.488Z,57.00
2018-12-12T10:30:39.435Z,58.40
2018-12-12T10:33:29.996Z,57.90
2018-12-12T10:36:18.581Z,57.30
2018-12-12T10:39:11.735Z,57.20
2018-12-12T10:42:05.119Z,57.10
2018-12-12T10:45:05.721Z,56.80
2018-12-12T10:48:08.262Z,56.40
2018-12-12T10:51:12.604Z,57.10
2018-12-12T10:54:18.426Z,56.80
2018-12-12T10:57:14.298Z,57.70
2018-12-12T11:00:05.167Z,56.80
2018-12-12T11:03:02.543Z,56.70
2018-12-12T11:05:55.111Z,56.20
2018-12-12T11:11:46.668Z,56.80
2018-12-12T11:14:35.840Z,55.40
2018-12-12T11:17:24.222Z,56.20
2018-12-12T11:20:13.636Z,55.70
2018-12-12T11:23:03.986Z,55.40
2018-12-12T11:25:52.335Z,54.90
2018-12-12T11:28:43.306Z,55.40
2018-12-12T11:31:34.831Z,55.90
2018-12-12T11:37:51.043Z,54.80
2018-12-12T11:40:48.301Z,54.30
2018-12-12T11:43:46.173Z,54.30
2018-12-12T11:46:38.946Z,54.00
2018-12-12T11:49:27.500Z,54.10
2018-12-12T11:52:24.322Z,54.30
2018-12-12T11:55:16.789Z,55.20
2018-12-12T11:58:12.384Z,55.20
2018-12-12T12:01:12.929Z,53.80
2018-12-12T12:04:03.299Z,54.50
2018-12-12T12:07:03.090Z,54.30
2018-12-12T12:10:01.615Z,54.70
2018-12-12T12:12:50.670Z,55.00
2018-12-12T12:15:43.219Z,54.10
2018-12-12T12:18:37.778Z,55.10
2018-12-12T12:24:29.282Z,55.20
2018-12-12T12:30:38.863Z,55.60
2018-12-12T12:33:31.743Z,55.70
2018-12-12T12:36:47.193Z,55.40
2018-12-12T12:46:15.235Z,54.90
2018-12-12T12:49:16.054Z,55.50
2018-12-12T12:55:15.628Z,56.10
2018-12-12T12:58:05.093Z,56.30
2018-12-12T13:00:53.391Z,55.90
2018-12-12T13:03:41.492Z,55.60
2018-12-12T13:06:29.215Z,56.20
2018-12-12T13:09:25.008Z,56.10
2018-12-12T13:12:13.523Z,55.80
2018-12-12T13:15:01.734Z,56.10
2018-12-12T13:17:49.654Z,56.10
2018-12-12T13:20:37.913Z,56.50
2018-12-12T13:23:26.081Z,56.40
2018-12-12T13:26:14.495Z,55.40
2018-12-12T13:29:05.554Z,55.80
2018-12-12T13:31:53.823Z,55.20
2018-12-12T13:34:43.355Z,55.90
2018-12-12T13:37:34.291Z,55.60
2018-12-12T13:40:22.803Z,55.10
2018-12-12T13:43:11.807Z,55.70
2018-12-12T13:46:00.203Z,56.00
2018-12-12T13:48:50.041Z,55.10
2018-12-12T13:51:37.770Z,55.20
2018-12-12T13:54:26.173Z,55.20
2018-12-12T13:57:16.362Z,55.20
2018-12-12T14:00:05.259Z,54.80
2018-12-12T14:02:54.338Z,55.20
2018-12-12T14:05:49.325Z,56.40
2018-12-12T14:08:38.675Z,55.90
2018-12-12T14:11:27.255Z,56.10
2018-12-12T14:14:15.970Z,56.40
2018-12-12T14:17:08.525Z,56.60
2018-12-12T14:19:56.434Z,56.80
2018-12-12T14:22:46.509Z,57.00
2018-12-12T14:25:34.273Z,57.30
2018-12-12T14:28:21.848Z,57.40
2018-12-12T14:31:10.241Z,57.50
2018-12-12T14:34:00.023Z,57.50
2018-12-12T14:36:49.023Z,57.50
2018-12-12T14:39:37.746Z,57.70
2018-12-12T14:42:26.797Z,57.80
2018-12-12T14:45:15.280Z,57.90
2018-12-12T14:48:05.039Z,58.00
2018-12-12T14:50:54.041Z,58.20
2018-12-12T14:53:42.452Z,58.20
2018-12-12T14:56:30.470Z,58.40
2018-12-12T14:59:19.519Z,58.20
2018-12-12T15:02:08.306Z,58.30
2018-12-12T15:04:56.652Z,58.40
2018-12-12T15:07:49.716Z,58.70
2018-12-12T15:10:39.490Z,58.80
2018-12-12T15:13:27.730Z,58.80
2018-12-12T15:16:16.291Z,58.70
2018-12-12T15:19:06.343Z,59.60
2018-12-12T15:21:56.458Z,59.10
2018-12-12T15:24:45.965Z,58.90
2018-12-12T15:27:36.644Z,59.40
2018-12-12T15:30:25.187Z,59.40
2018-12-12T15:33:13.772Z,59.20
2018-12-12T15:36:04.841Z,59.40
2018-12-12T15:38:53.316Z,59.40
2018-12-12T15:41:42.573Z,59.50
2018-12-12T15:44:30.086Z,59.60
2018-12-12T15:47:18.216Z,59.60
2018-12-12T15:50:05.925Z,59.80
2018-12-12T15:52:54.702Z,59.50
2018-12-12T15:55:43.150Z,59.50
2018-12-12T15:58:31.498Z,59.60
2018-12-12T16:01:20.404Z,59.90
2018-12-12T16:04:08.158Z,59.80
2018-12-12T16:06:56.099Z,59.90
2018-12-12T16:09:45.119Z,59.90
2018-12-12T16:12:33.362Z,60.00
2018-12-12T16:15:21.863Z,60.00
2018-12-12T16:18:09.665Z,59.90
2018-12-12T16:21:00.241Z,60.10
2018-12-12T16:23:49.513Z,59.90
2018-12-12T16:26:39.188Z,59.90
2018-12-12T16:29:28.110Z,60.00
2018-12-12T16:32:16.164Z,59.80
2018-12-12T16:35:05.455Z,59.90
2018-12-12T16:37:54.035Z,60.40
2018-12-12T16:40:42.903Z,60.00
2018-12-12T16:43:31.140Z,60.20
2018-12-12T16:46:23.571Z,60.20
2018-12-12T16:49:12.163Z,60.30
2018-12-12T16:52:01.509Z,60.50
2018-12-12T16:54:53.262Z,60.40
2018-12-12T16:57:44.666Z,60.30
2018-12-12T17:00:33.118Z,60.40
2018-12-12T17:03:21.593Z,60.50
2018-12-12T17:06:09.528Z,60.50
2018-12-12T17:08:57.301Z,60.50
2018-12-12T17:11:45.573Z,60.10
2018-12-12T17:14:35.317Z,60.10
2018-12-12T17:17:23.763Z,59.90
2018-12-12T17:20:12.223Z,60.20
2018-12-12T17:23:00.514Z,60.50
2018-12-12T17:25:48.911Z,60.40
2018-12-12T17:28:38.606Z,60.90
2018-12-12T17:31:27.461Z,61.30
2018-12-12T17:34:17.327Z,61.30
2018-12-12T17:37:06.999Z,61.40
2018-12-12T17:39:54.608Z,61.40
2018-12-12T17:42:42.107Z,62.10
2018-12-12T17:45:32.450Z,61.70
2018-12-12T17:48:21.109Z,61.80
2018-12-12T17:51:10.292Z,61.50
2018-12-12T17:54:00.445Z,61.90
2018-12-12T17:56:50.044Z,61.90
2018-12-12T17:59:38.892Z,61.90
2018-12-12T18:02:27.211Z,62.10
2018-12-12T18:05:34.080Z,62.10
2018-12-12T18:08:21.446Z,62.10
2018-12-12T18:11:10.305Z,62.20
2018-12-12T18:13:59.706Z,62.20
2018-12-12T18:16:50.780Z,62.20
2018-12-12T18:19:39.328Z,62.50
2018-12-12T18:22:27.851Z,62.60
2018-12-12T18:25:18.909Z,62.40
2018-12-12T18:28:14.741Z,62.10
2018-12-12T18:31:45.596Z,62.60
2018-12-12T18:37:34.668Z,62.70
2018-12-12T18:40:23.791Z,62.80
2018-12-12T18:43:13.751Z,62.90
2018-12-12T18:46:02.327Z,63.00
2018-12-12T18:48:51.599Z,63.00
2018-12-12T18:51:41.403Z,63.00
2018-12-12T18:54:32.494Z,63.00
2018-12-12T18:57:22.315Z,63.10
2018-12-12T19:00:10.439Z,63.00
2018-12-12T19:02:58.080Z,63.20
2018-12-12T19:05:47.020Z,63.20
2018-12-12T19:08:35.588Z,63.30
2018-12-12T19:11:24.014Z,63.20
2018-12-12T19:14:11.600Z,63.30
2018-12-12T19:16:59.698Z,63.40
2018-12-12T19:19:47.518Z,63.30
2018-12-12T19:22:35.763Z,63.50
2018-12-12T19:25:23.614Z,63.50
2018-12-12T19:28:11.330Z,63.30
2018-12-12T19:30:59.282Z,63.40
2018-12-12T19:33:47.404Z,63.40
2018-12-12T19:36:35.461Z,63.20
2018-12-12T19:39:25.246Z,63.30
2018-12-12T19:42:14.104Z,63.50
2018-12-12T19:45:03.012Z,63.60
2018-12-12T19:47:50.839Z,63.60
2018-12-12T19:50:39.257Z,63.60
2018-12-12T19:53:28.928Z,63.60
2018-12-12T19:56:17.662Z,63.40
2018-12-12T19:59:05.102Z,63.40
2018-12-12T20:01:53.303Z,63.40
2018-12-12T20:04:41.052Z,63.00
2018-12-12T20:07:29.428Z,63.30
2018-12-12T20:10:16.932Z,63.30
2018-12-12T20:13:04.405Z,63.00
2018-12-12T20:15:52.812Z,63.00
2018-12-12T20:18:47.747Z,63.30
2018-12-12T20:21:37.602Z,63.40
2018-12-12T20:24:25.349Z,62.80
2018-12-12T20:27:14.480Z,63.20
2018-12-12T20:30:01.938Z,63.40
2018-12-12T20:32:49.851Z,63.60
2018-12-12T20:35:37.797Z,63.50
2018-12-12T20:38:26.522Z,63.60
2018-12-12T20:41:16.767Z,63.20
2018-12-12T20:44:06.057Z,63.50
2018-12-12T20:46:54.578Z,63.20
2018-12-12T20:49:43.011Z,63.40
2018-12-12T20:52:31.784Z,64.30
2018-12-12T20:55:20.190Z,63.20
2018-12-12T20:58:07.861Z,63.30
2018-12-12T21:00:56.030Z,63.50
2018-12-12T21:03:44.973Z,63.50
2018-12-12T21:06:33.240Z,63.10
2018-12-12T21:09:21.328Z,63.00
2018-12-12T21:12:09.404Z,63.30
2018-12-12T21:14:57.050Z,63.00
2018-12-12T21:17:45.523Z,63.20
2018-12-12T21:20:34.623Z,63.30
2018-12-12T21:23:24.827Z,63.30
2018-12-12T21:26:13.542Z,63.20
2018-12-12T21:29:02.981Z,63.20
2018-12-12T21:31:51.719Z,63.20
2018-12-12T21:34:40.061Z,63.10
2018-12-12T21:37:29.939Z,63.00
2018-12-12T21:40:17.833Z,63.30
2018-12-12T21:43:06.429Z,63.00
2018-12-12T21:45:58.690Z,63.10
2018-12-12T21:48:46.609Z,63.20
2018-12-12T21:51:34.860Z,62.90
2018-12-12T21:54:22.458Z,63.30
2018-12-12T21:57:11.467Z,63.20
2018-12-12T21:59:59.392Z,63.30
2018-12-12T22:02:47.900Z,63.50
2018-12-12T22:05:36.180Z,63.50
2018-12-12T22:08:24.072Z,63.50
2018-12-12T22:11:11.827Z,63.60
2018-12-12T22:14:00.587Z,63.30
2018-12-12T22:16:48.443Z,63.50
2018-12-12T22:19:38.123Z,63.50
2018-12-12T22:22:26.092Z,63.50
2018-12-12T22:25:14.695Z,63.50
2018-12-12T22:30:55.994Z,63.60
2018-12-12T22:33:45.071Z,63.50
2018-12-12T22:36:32.878Z,63.50
2018-12-12T22:39:21.332Z,63.60
2018-12-12T22:42:09.471Z,63.60
2018-12-12T22:44:58.102Z,63.30
2018-12-12T22:47:46.860Z,63.40
2018-12-12T22:50:35.460Z,63.60
2018-12-12T22:53:23.391Z,63.40
2018-12-12T22:56:11.094Z,63.60
2018-12-12T22:58:59.047Z,63.20
2018-12-12T23:01:47.320Z,63.50
2018-12-12T23:04:36.079Z,63.30
2018-12-12T23:07:24.109Z,63.40
2018-12-12T23:10:13.062Z,63.30
2018-12-12T23:13:01.889Z,63.10
2018-12-12T23:15:50.266Z,63.50
2018-12-12T23:18:38.046Z,63.60
2018-12-12T23:21:25.788Z,63.70
2018-12-12T23:24:15.918Z,63.20
2018-12-12T23:27:04.892Z,63.30
2018-12-12T23:29:53.125Z,63.60
2018-12-12T23:32:40.821Z,63.30
2018-12-12T23:35:28.361Z,63.30
2018-12-12T23:38:16.661Z,63.20
2018-12-12T23:41:05.187Z,63.60
2018-12-12T23:43:53.293Z,63.50
2018-12-12T23:46:49.874Z,63.40
2018-12-12T23:49:38.059Z,63.70
2018-12-12T23:52:26.044Z,63.00
2018-12-12T23:55:15.075Z,63.60
2018-12-12T23:58:02.707Z,62.90
